Time;durP1;ratioP1;P1;durP2;ratioP2;P2;SDS_P1;SDS_P2;PMS_P1;PMS_P2;Temp;Humidity;BMP_temperature;BMP_pressure;BME280_temperature;BME280_humidity;BME280_pressure;Samples;Min_cycle;Max_cycle;Signal;HPM_P1;HPM_P2
2022/09/06 00:00:06;;;;;;;2.30;2.10;;;;;;;;;;5032163;28;20302;-77
2022/09/06 00:02:32;;;;;;;2.07;1.80;;;;;;;;;;5032486;28;20190;-77
2022/09/06 00:04:58;;;;;;;2.00;1.80;;;;;;;;;;5016006;28;20329;-76
2022/09/06 00:07:24;;;;;;;2.20;2.00;;;;;;;;;;5016079;28;20178;-77
2022/09/06 00:09:50;;;;;;;2.17;2.03;;;;;;;;;;5032208;28;20175;-76
2022/09/06 00:12:16;;;;;;;2.37;2.00;;;;;;;;;;5016225;28;20190;-76
2022/09/06 00:14:42;;;;;;;2.00;1.90;;;;;;;;;;5015787;28;20653;-77
2022/09/06 00:17:08;;;;;;;3.00;1.90;;;;;;;;;;5032319;28;20179;-77
2022/09/06 00:19:34;;;;;;;1.83;1.73;;;;;;;;;;5014777;28;20267;-76
2022/09/06 00:22:00;;;;;;;2.13;1.93;;;;;;;;;;5015860;28;20174;-77
2022/09/06 00:24:26;;;;;;;2.33;1.90;;;;;;;;;;5032037;28;20190;-76
2022/09/06 00:26:52;;;;;;;2.57;2.10;;;;;;;;;;5015522;28;20591;-77
2022/09/06 00:29:18;;;;;;;2.10;1.90;;;;;;;;;;5010628;28;20202;-77
2022/09/06 00:31:44;;;;;;;2.13;1.93;;;;;;;;;;5030832;28;20186;-76
2022/09/06 00:34:10;;;;;;;2.27;2.07;;;;;;;;;;5032004;28;20194;-76
2022/09/06 00:36:36;;;;;;;2.43;2.13;;;;;;;;;;5031864;28;20732;-77
2022/09/06 00:39:02;;;;;;;2.23;2.03;;;;;;;;;;5015142;28;20325;-76
2022/09/06 00:41:28;;;;;;;2.77;2.10;;;;;;;;;;5031562;28;20248;-76
2022/09/06 00:43:54;;;;;;;2.60;2.20;;;;;;;;;;5015250;28;20700;-77
2022/09/06 00:46:23;;;;;;;2.63;2.40;;;;;;;;;;5015423;28;20182;-77
2022/09/06 00:48:51;;;;;;;2.97;2.17;;;;;;;;;;5015265;28;20190;-76
2022/09/06 00:51:18;;;;;;;2.60;2.30;;;;;;;;;;5031671;28;20186;-76
2022/09/06 00:53:44;;;;;;;2.43;2.23;;;;;;;;;;5031281;28;20206;-76
2022/09/06 00:56:10;;;;;;;2.40;2.20;;;;;;;;;;5015182;28;20723;-77
2022/09/06 00:58:36;;;;;;;2.20;2.00;;;;;;;;;;5015184;28;20209;-77
2022/09/06 01:01:02;;;;;;;2.27;2.10;;;;;;;;;;5031219;28;20175;-77
2022/09/06 01:03:28;;;;;;;2.47;2.10;;;;;;;;;;5032897;28;20186;-77
2022/09/06 01:06:00;;;;;;;2.60;2.40;;;;;;;;;;5015041;28;20213;-77
2022/09/06 01:08:29;;;;;;;2.30;1.80;;;;;;;;;;5031357;28;20212;-77
2022/09/06 01:11:02;;;;;;;2.70;2.50;;;;;;;;;;5031087;28;20235;-76
2022/09/06 01:13:33;;;;;;;2.50;2.30;;;;;;;;;;5031140;28;20289;-76
2022/09/06 01:16:10;;;;;;;2.70;2.47;;;;;;;;;;5031134;28;20182;-76
2022/09/06 01:18:42;;;;;;;2.40;2.20;;;;;;;;;;5030999;28;20197;-77
2022/09/06 01:21:17;;;;;;;2.50;2.30;;;;;;;;;;5031111;28;20181;-76
2022/09/06 01:23:42;;;;;;;2.90;2.30;;;;;;;;;;5031237;28;20197;-77
2022/09/06 01:26:27;;;;;;;2.40;2.20;;;;;;;;;;5032580;28;20170;-76
2022/09/06 01:28:53;;;;;;;2.43;2.27;;;;;;;;;;5031011;28;20235;-76
2022/09/06 01:31:40;;;;;;;3.13;2.43;;;;;;;;;;5031004;28;20261;-77
2022/09/06 01:34:06;;;;;;;2.70;2.50;;;;;;;;;;5030840;28;20668;-77
2022/09/06 01:36:42;;;;;;;2.70;2.20;;;;;;;;;;5030927;28;20227;-76
2022/09/06 01:39:13;;;;;;;2.60;2.40;;;;;;;;;;5030650;28;20236;-76
2022/09/06 01:41:39;;;;;;;2.30;2.10;;;;;;;;;;5031251;28;20162;-77
2022/09/06 01:44:05;;;;;;;3.30;2.47;;;;;;;;;;5014323;28;20244;-77
2022/09/06 01:46:34;;;;;;;3.07;2.20;;;;;;;;;;5031048;28;20641;-77
2022/09/06 01:49:23;;;;;;;2.47;2.27;;;;;;;;;;5030703;28;20651;-76
2022/09/06 01:52:01;;;;;;;2.70;2.43;;;;;;;;;;5030822;28;20170;-77
2022/09/06 01:54:45;;;;;;;2.63;2.23;;;;;;;;;;5030683;28;20205;-77
2022/09/06 01:57:24;;;;;;;2.50;2.30;;;;;;;;;;5032000;28;20170;-77
2022/09/06 01:59:55;;;;;;;3.70;2.30;;;;;;;;;;5030464;28;20201;-77
2022/09/06 02:02:20;;;;;;;2.73;2.40;;;;;;;;;;5030833;28;20180;-77
2022/09/06 02:04:50;;;;;;;3.90;2.20;;;;;;;;;;5030985;28;20269;-77
2022/09/06 02:07:21;;;;;;;3.07;2.27;;;;;;;;;;5031873;28;20633;-76
2022/09/06 02:09:49;;;;;;;2.63;2.43;;;;;;;;;;5030499;28;20637;-77
2022/09/06 02:12:16;;;;;;;2.47;2.27;;;;;;;;;;5031703;28;20175;-76
2022/09/06 02:14:49;;;;;;;2.50;2.30;;;;;;;;;;5030654;28;20231;-76
2022/09/06 02:17:18;;;;;;;2.60;2.40;;;;;;;;;;5030467;28;20273;-76
2022/09/06 02:19:53;;;;;;;2.60;2.40;;;;;;;;;;5030521;28;20296;-76
2022/09/06 02:22:20;;;;;;;2.87;2.57;;;;;;;;;;5029209;28;20193;-76
2022/09/06 02:24:48;;;;;;;5.73;2.50;;;;;;;;;;5014099;28;20672;-77
2022/09/06 02:27:15;;;;;;;2.90;2.40;;;;;;;;;;5031662;28;20182;-76
2022/09/06 02:29:41;;;;;;;3.40;2.53;;;;;;;;;;5013907;28;20194;-76
2022/09/06 02:32:11;;;;;;;3.00;2.50;;;;;;;;;;5031749;28;20209;-76
2022/09/06 02:34:42;;;;;;;2.80;2.60;;;;;;;;;;5030497;28;20198;-76
2022/09/06 02:37:08;;;;;;;3.00;2.80;;;;;;;;;;5030359;28;20266;-76
2022/09/06 02:39:34;;;;;;;2.70;2.50;;;;;;;;;;5030113;28;20437;-76
2022/09/06 02:42:00;;;;;;;2.97;2.70;;;;;;;;;;5013889;28;20214;-76
2022/09/06 02:44:26;;;;;;;2.97;2.77;;;;;;;;;;5016778;28;20305;-76
2022/09/06 02:46:52;;;;;;;2.90;2.70;;;;;;;;;;5017576;28;20613;-76
2022/09/06 02:49:18;;;;;;;2.77;2.10;;;;;;;;;;5017427;28;20182;-76
2022/09/06 02:51:44;;;;;;;3.23;2.50;;;;;;;;;;5017708;28;20193;-76
2022/09/06 02:54:10;;;;;;;2.63;2.43;;;;;;;;;;5033788;28;20194;-76
2022/09/06 02:56:36;;;;;;;2.67;2.47;;;;;;;;;;5033678;28;20552;-76
2022/09/06 02:59:04;;;;;;;2.90;2.70;;;;;;;;;;5033649;28;20210;-76
2022/09/06 03:01:30;;;;;;;3.40;2.60;;;;;;;;;;5034926;28;20166;-77
2022/09/06 03:03:56;;;;;;;4.00;2.50;;;;;;;;;;5033544;28;20205;-76
2022/09/06 03:06:23;;;;;;;3.00;2.70;;;;;;;;;;5017146;28;20228;-76
2022/09/06 03:08:49;;;;;;;2.73;2.53;;;;;;;;;;5033481;28;20178;-76
2022/09/06 03:11:15;;;;;;;2.70;2.50;;;;;;;;;;5017101;28;20285;-77
2022/09/06 03:13:41;;;;;;;3.30;2.50;;;;;;;;;;5034555;28;20601;-76
2022/09/06 03:16:07;;;;;;;2.70;2.50;;;;;;;;;;5033763;28;20304;-76
2022/09/06 03:18:33;;;;;;;2.77;2.57;;;;;;;;;;5033341;28;20206;-76
2022/09/06 03:21:00;;;;;;;3.53;2.80;;;;;;;;;;5016876;28;20202;-76
2022/09/06 03:23:28;;;;;;;2.63;2.43;;;;;;;;;;5016852;28;20205;-76
2022/09/06 03:25:54;;;;;;;3.20;2.90;;;;;;;;;;5016764;28;20221;-76
2022/09/06 03:28:20;;;;;;;3.00;2.80;;;;;;;;;;5033323;28;20174;-76
2022/09/06 03:30:48;;;;;;;3.00;2.70;;;;;;;;;;5032983;28;20167;-76
2022/09/06 03:33:14;;;;;;;3.10;2.80;;;;;;;;;;5034280;28;20283;-76
2022/09/06 03:35:40;;;;;;;3.00;2.73;;;;;;;;;;5016740;28;20630;-76
2022/09/06 03:38:07;;;;;;;2.77;2.57;;;;;;;;;;5033032;28;20593;-76
2022/09/06 03:40:33;;;;;;;3.83;2.80;;;;;;;;;;5033968;28;20297;-76
2022/09/06 03:42:59;;;;;;;3.03;2.73;;;;;;;;;;5033565;28;20274;-76
2022/09/06 03:45:25;;;;;;;2.70;2.50;;;;;;;;;;5016602;28;20201;-76
2022/09/06 03:47:51;;;;;;;2.87;2.57;;;;;;;;;;5034165;28;20174;-76
2022/09/06 03:50:17;;;;;;;2.70;2.50;;;;;;;;;;5016107;28;20182;-76
2022/09/06 03:52:43;;;;;;;3.20;2.80;;;;;;;;;;5032739;28;20198;-76
2022/09/06 03:55:10;;;;;;;3.00;2.70;;;;;;;;;;5015300;28;20527;-76
2022/09/06 03:57:36;;;;;;;3.80;3.10;;;;;;;;;;5016632;28;20186;-76
2022/09/06 04:00:03;;;;;;;3.80;3.40;;;;;;;;;;5032226;28;20213;-76
2022/09/06 04:02:29;;;;;;;4.33;3.20;;;;;;;;;;5016248;28;20213;-76
2022/09/06 04:04:55;;;;;;;3.00;2.80;;;;;;;;;;5016073;28;20189;-76
2022/09/06 04:07:22;;;;;;;4.33;3.30;;;;;;;;;;5016046;28;20183;-76
2022/09/06 04:09:48;;;;;;;4.40;3.50;;;;;;;;;;5016158;28;20182;-76
2022/09/06 04:12:14;;;;;;;3.87;3.47;;;;;;;;;;5032238;28;20265;-76
2022/09/06 04:14:40;;;;;;;6.27;3.77;;;;;;;;;;5016033;28;20672;-76
2022/09/06 04:17:06;;;;;;;5.13;3.60;;;;;;;;;;5015983;28;20186;-76
2022/09/06 04:19:33;;;;;;;6.07;3.50;;;;;;;;;;5033141;28;20210;-76
2022/09/06 04:21:59;;;;;;;5.13;3.60;;;;;;;;;;5015882;28;20182;-76
2022/09/06 04:24:25;;;;;;;5.07;3.73;;;;;;;;;;5015933;28;20650;-76
2022/09/06 04:26:51;;;;;;;6.47;3.80;;;;;;;;;;5015883;28;20265;-76
2022/09/06 04:29:17;;;;;;;5.77;3.30;;;;;;;;;;5015439;28;20193;-76
2022/09/06 04:31:43;;;;;;;4.20;3.20;;;;;;;;;;5015654;28;20185;-76
2022/09/06 04:34:09;;;;;;;3.47;3.10;;;;;;;;;;5015787;28;20610;-76
2022/09/06 04:36:36;;;;;;;5.90;3.57;;;;;;;;;;5015512;28;20183;-76
2022/09/06 04:39:02;;;;;;;6.60;3.30;;;;;;;;;;5015593;28;20210;-76
2022/09/06 04:41:28;;;;;;;5.70;3.47;;;;;;;;;;5031873;28;20174;-76
2022/09/06 04:43:54;;;;;;;6.37;3.30;;;;;;;;;;5031815;28;20221;-76
2022/09/06 04:46:22;;;;;;;4.77;3.33;;;;;;;;;;5015418;28;20642;-77
2022/09/06 04:48:49;;;;;;;4.00;3.07;;;;;;;;;;5015420;28;20269;-76
2022/09/06 04:51:15;;;;;;;4.73;3.20;;;;;;;;;;5031967;28;20186;-76
2022/09/06 04:53:41;;;;;;;4.40;3.37;;;;;;;;;;5015133;28;20205;-76
2022/09/06 04:56:07;;;;;;;3.40;2.90;;;;;;;;;;5031730;28;20182;-76
2022/09/06 04:58:33;;;;;;;4.30;3.13;;;;;;;;;;5015325;28;20547;-77
2022/09/06 05:00:59;;;;;;;3.60;3.10;;;;;;;;;;5015018;28;20671;-76
2022/09/06 05:03:25;;;;;;;3.47;3.17;;;;;;;;;;5031407;28;20198;-76
2022/09/06 05:05:50;;;;;;;4.10;2.90;;;;;;;;;;5014690;28;20186;-76
2022/09/06 05:08:17;;;;;;;3.97;2.80;;;;;;;;;;5015445;28;20185;-76
2022/09/06 05:10:43;;;;;;;3.97;3.07;;;;;;;;;;5015441;28;20181;-76
2022/09/06 05:13:09;;;;;;;4.50;2.80;;;;;;;;;;5015265;28;20256;-75
2022/09/06 05:15:35;;;;;;;3.63;3.20;;;;;;;;;;5015322;28;20217;-77
2022/09/06 05:18:02;;;;;;;5.87;3.20;;;;;;;;;;5015337;28;20265;-77
2022/09/06 05:20:28;;;;;;;3.40;3.00;;;;;;;;;;5031067;28;20194;-76
2022/09/06 05:22:54;;;;;;;3.67;3.20;;;;;;;;;;5031417;28;20204;-76
2022/09/06 05:25:20;;;;;;;4.47;3.40;;;;;;;;;;5015011;28;20180;-76
2022/09/06 05:27:47;;;;;;;3.67;3.10;;;;;;;;;;5031110;28;20219;-76
2022/09/06 05:30:13;;;;;;;3.00;2.70;;;;;;;;;;5031099;28;20189;-75
2022/09/06 05:32:39;;;;;;;3.90;3.30;;;;;;;;;;5015040;28;20573;-76
2022/09/06 05:35:05;;;;;;;3.73;2.97;;;;;;;;;;5030922;28;20683;-76
2022/09/06 05:37:31;;;;;;;3.67;3.37;;;;;;;;;;5014651;28;20182;-75
2022/09/06 05:39:58;;;;;;;3.97;3.10;;;;;;;;;;5014886;28;20210;-76
2022/09/06 05:42:25;;;;;;;3.50;3.20;;;;;;;;;;5032017;28;20245;-76
2022/09/06 05:44:51;;;;;;;3.90;3.20;;;;;;;;;;5014512;28;20178;-76
2022/09/06 05:47:17;;;;;;;3.20;3.00;;;;;;;;;;5030729;28;20174;-76
2022/09/06 05:49:43;;;;;;;3.57;3.27;;;;;;;;;;5030851;28;20616;-76
2022/09/06 05:52:09;;;;;;;3.57;3.10;;;;;;;;;;5014957;28;20182;-76
2022/09/06 05:54:35;;;;;;;4.33;3.23;;;;;;;;;;5030832;28;20284;-76
2022/09/06 05:57:01;;;;;;;4.23;2.77;;;;;;;;;;5014904;28;20293;-76
2022/09/06 05:59:27;;;;;;;3.70;3.40;;;;;;;;;;5014311;28;20206;-76
2022/09/06 06:01:54;;;;;;;4.40;3.50;;;;;;;;;;5014521;28;20200;-76
2022/09/06 06:04:21;;;;;;;3.97;3.60;;;;;;;;;;5030810;28;20252;-76
2022/09/06 06:06:48;;;;;;;3.47;3.13;;;;;;;;;;5031044;28;20550;-80
2022/09/06 06:09:14;;;;;;;4.63;3.20;;;;;;;;;;5030705;28;20178;-78
2022/09/06 06:11:40;;;;;;;3.30;3.00;;;;;;;;;;5014531;28;20182;-77
2022/09/06 06:14:07;;;;;;;3.70;3.30;;;;;;;;;;5031870;28;20198;-76
2022/09/06 06:16:33;;;;;;;3.70;3.40;;;;;;;;;;5014172;28;20676;-77
2022/09/06 06:18:59;;;;;;;3.57;3.27;;;;;;;;;;5032783;28;20681;-77
2022/09/06 06:21:26;;;;;;;3.80;3.50;;;;;;;;;;5034667;28;20185;-76
2022/09/06 06:23:54;;;;;;;4.40;3.53;;;;;;;;;;5018388;28;20240;-77
2022/09/06 06:26:20;;;;;;;3.83;3.50;;;;;;;;;;5034572;28;20176;-75
2022/09/06 06:28:47;;;;;;;4.00;3.30;;;;;;;;;;5034133;28;20178;-77
2022/09/06 06:31:14;;;;;;;4.30;3.47;;;;;;;;;;5034217;28;20217;-75
2022/09/06 06:33:40;;;;;;;6.97;3.63;;;;;;;;;;5035746;28;20198;-75
2022/09/06 06:36:19;;;;;;;4.03;2.97;;;;;;;;;;5018033;28;20208;-75
2022/09/06 06:38:45;;;;;;;5.93;3.30;;;;;;;;;;5033969;28;20452;-75
2022/09/06 06:41:12;;;;;;;3.93;3.30;;;;;;;;;;5034180;28;20228;-75
2022/09/06 06:43:39;;;;;;;3.73;3.40;;;;;;;;;;5033923;28;20235;-76
2022/09/06 06:46:06;;;;;;;4.30;3.40;;;;;;;;;;5033956;28;20174;-76
2022/09/06 06:48:32;;;;;;;4.33;3.20;;;;;;;;;;5034612;28;20175;-76
2022/09/06 06:50:58;;;;;;;4.10;3.70;;;;;;;;;;5034534;28;20175;-76
2022/09/06 06:53:24;;;;;;;4.03;3.63;;;;;;;;;;5033622;28;20218;-76
2022/09/06 06:55:50;;;;;;;4.53;3.60;;;;;;;;;;5017605;28;20179;-76
2022/09/06 06:58:16;;;;;;;4.13;3.57;;;;;;;;;;5016514;28;20522;-76
2022/09/06 07:00:43;;;;;;;5.23;3.80;;;;;;;;;;5034753;28;20202;-76
2022/09/06 07:03:10;;;;;;;5.10;3.93;;;;;;;;;;5034834;28;20208;-76
2022/09/06 07:05:36;;;;;;;4.30;3.53;;;;;;;;;;5033896;28;20277;-76
2022/09/06 07:08:03;;;;;;;5.17;3.50;;;;;;;;;;5034979;28;20229;-76
2022/09/06 07:10:29;;;;;;;4.37;3.63;;;;;;;;;;5033415;28;20236;-76
2022/09/06 07:12:55;;;;;;;3.57;3.23;;;;;;;;;;5033418;28;20206;-76
2022/09/06 07:15:21;;;;;;;6.17;3.57;;;;;;;;;;5033092;28;20190;-76
2022/09/06 07:17:47;;;;;;;5.00;3.57;;;;;;;;;;5033076;28;20180;-76
2022/09/06 07:20:13;;;;;;;4.13;3.33;;;;;;;;;;5031786;28;20210;-76
2022/09/06 07:22:39;;;;;;;4.40;4.00;;;;;;;;;;5032591;28;20199;-75
2022/09/06 07:25:05;;;;;;;4.50;4.10;;;;;;;;;;5033170;28;20274;-76
2022/09/06 07:27:31;;;;;;;5.63;3.70;;;;;;;;;;5016644;28;20181;-75
2022/09/06 07:29:57;;;;;;;4.63;3.47;;;;;;;;;;5033326;28;20175;-76
2022/09/06 07:32:23;;;;;;;6.00;3.80;;;;;;;;;;5016710;28;20228;-76
2022/09/06 07:34:49;;;;;;;4.10;3.30;;;;;;;;;;5032982;28;20551;-76
2022/09/06 07:37:15;;;;;;;3.87;3.37;;;;;;;;;;5016760;28;20193;-76
2022/09/06 07:39:41;;;;;;;5.37;3.40;;;;;;;;;;5016383;28;20201;-76
2022/09/06 07:42:08;;;;;;;7.07;3.60;;;;;;;;;;5034210;28;20261;-76
2022/09/06 07:44:34;;;;;;;7.37;3.53;;;;;;;;;;5032990;28;20221;-76
2022/09/06 07:47:05;;;;;;;3.60;3.30;;;;;;;;;;5033006;28;20178;-76
2022/09/06 07:49:31;;;;;;;3.77;3.20;;;;;;;;;;5017106;28;20178;-76
2022/09/06 07:51:57;;;;;;;3.60;3.30;;;;;;;;;;5016778;28;20192;-76
2022/09/06 07:54:23;;;;;;;5.87;3.37;;;;;;;;;;5016306;28;20207;-76
2022/09/06 07:56:49;;;;;;;3.60;3.30;;;;;;;;;;5032534;28;20232;-76
2022/09/06 07:59:15;;;;;;;5.17;3.60;;;;;;;;;;5032570;28;20214;-76
2022/09/06 08:01:41;;;;;;;3.70;3.40;;;;;;;;;;5032709;28;20182;-76
2022/09/06 08:04:09;;;;;;;4.87;3.30;;;;;;;;;;5016067;28;20205;-76
2022/09/06 08:06:36;;;;;;;4.90;3.30;;;;;;;;;;5032516;28;20649;-76
2022/09/06 08:09:02;;;;;;;5.38;3.42;;;;;;;;;;5032293;28;20185;-75
2022/09/06 08:11:30;;;;;;;5.20;3.35;;;;;;;;;;5032632;28;20174;-76
2022/09/06 08:13:56;;;;;;;4.47;3.45;;;;;;;;;;5032291;28;20281;-76
2022/09/06 08:16:23;;;;;;;3.50;3.20;;;;;;;;;;5033770;28;20645;-76
2022/09/06 08:18:50;;;;;;;3.25;2.88;;;;;;;;;;5032048;28;20301;-76
2022/09/06 08:21:16;;;;;;;5.97;3.40;;;;;;;;;;5015899;28;20178;-76
2022/09/06 08:23:49;;;;;;;4.43;3.40;;;;;;;;;;5015597;28;20208;-76
2022/09/06 08:26:16;;;;;;;4.00;3.30;;;;;;;;;;5032200;28;20201;-76
2022/09/06 08:28:42;;;;;;;4.03;3.30;;;;;;;;;;5032085;28;20191;-76
2022/09/06 08:31:18;;;;;;;3.70;3.30;;;;;;;;;;5032069;28;20170;-76
2022/09/06 08:33:46;;;;;;;3.90;3.40;;;;;;;;;;5015682;28;20205;-76
2022/09/06 08:36:12;;;;;;;3.83;3.42;;;;;;;;;;5031846;28;20220;-76
2022/09/06 08:38:38;;;;;;;5.60;3.40;;;;;;;;;;5015546;28;20190;-76
2022/09/06 08:41:13;;;;;;;4.63;3.47;;;;;;;;;;5031386;28;20170;-76
2022/09/06 08:43:46;;;;;;;4.07;3.08;;;;;;;;;;5031801;28;20205;-76
2022/09/06 08:46:12;;;;;;;6.43;3.80;;;;;;;;;;5031858;28;20175;-76
2022/09/06 08:48:38;;;;;;;4.13;3.30;;;;;;;;;;5015268;28;20171;-75
2022/09/06 08:51:04;;;;;;;4.90;3.50;;;;;;;;;;5015472;28;20185;-76
2022/09/06 08:53:30;;;;;;;4.03;2.95;;;;;;;;;;5032797;28;20193;-76
2022/09/06 08:56:15;;;;;;;3.35;2.80;;;;;;;;;;5015255;28;20189;-76
2022/09/06 08:58:54;;;;;;;4.57;2.97;;;;;;;;;;5031530;28;20170;-76
2022/09/06 09:01:24;;;;;;;6.43;3.28;;;;;;;;;;5031374;28;20178;-76
2022/09/06 09:03:52;;;;;;;3.97;2.90;;;;;;;;;;5031341;28;20193;-76
2022/09/06 09:06:18;;;;;;;3.35;2.70;;;;;;;;;;5032899;28;20170;-76
2022/09/06 09:09:04;;;;;;;5.03;2.90;;;;;;;;;;5014968;28;20175;-76
2022/09/06 09:11:32;;;;;;;2.88;2.53;;;;;;;;;;5031266;28;20170;-76
2022/09/06 09:14:07;;;;;;;3.22;2.90;;;;;;;;;;5031214;28;20194;-76
2022/09/06 09:16:33;;;;;;;5.20;3.10;;;;;;;;;;5032507;28;20166;-76
2022/09/06 09:19:04;;;;;;;2.85;2.60;;;;;;;;;;5014706;28;20206;-76
2022/09/06 09:21:35;;;;;;;4.32;2.90;;;;;;;;;;5031353;28;20300;-76
2022/09/06 09:24:04;;;;;;;2.67;2.47;;;;;;;;;;5031156;28;20202;-76
2022/09/06 09:26:32;;;;;;;3.00;2.70;;;;;;;;;;5030966;28;20248;-76
2022/09/06 09:29:07;;;;;;;3.13;2.65;;;;;;;;;;5032230;28;20173;-76
2022/09/06 09:31:35;;;;;;;4.55;2.75;;;;;;;;;;5031218;28;20546;-76
2022/09/06 09:34:03;;;;;;;5.63;3.17;;;;;;;;;;5030933;28;20204;-76
2022/09/06 09:36:29;;;;;;;4.28;2.80;;;;;;;;;;5031216;28;20178;-76
2022/09/06 09:38:57;;;;;;;7.05;2.80;;;;;;;;;;5030827;28;20465;-76
2022/09/06 09:41:32;;;;;;;4.10;2.60;;;;;;;;;;5014922;28;20206;-76
2022/09/06 09:44:01;;;;;;;3.90;2.63;;;;;;;;;;5036564;22;20233;-77
2022/09/06 09:46:29;;;;;;;2.60;2.40;;;;;;;;;;5031170;28;20231;-77
2022/09/06 09:49:01;;;;;;;3.75;2.70;;;;;;;;;;5031886;28;20162;-77
2022/09/06 09:51:27;;;;;;;3.63;2.47;;;;;;;;;;5030974;28;20178;-77
2022/09/06 09:53:55;;;;;;;2.70;2.50;;;;;;;;;;5034232;28;20658;-77
2022/09/06 09:56:26;;;;;;;3.25;2.60;;;;;;;;;;5036239;28;20174;-77
2022/09/06 09:58:53;;;;;;;4.65;2.22;;;;;;;;;;5034643;28;20178;-77
2022/09/06 10:01:22;;;;;;;3.67;2.55;;;;;;;;;;5018702;28;20266;-77
2022/09/06 10:03:50;;;;;;;3.85;2.50;;;;;;;;;;5035904;28;20186;-77
2022/09/06 10:06:24;;;;;;;4.07;2.70;;;;;;;;;;5035971;28;20666;-77
2022/09/06 10:08:50;;;;;;;2.38;2.17;;;;;;;;;;5034456;28;20174;-77
2022/09/06 10:11:36;;;;;;;5.13;2.58;;;;;;;;;;5034697;28;20170;-77
2022/09/06 10:14:12;;;;;;;3.80;2.53;;;;;;;;;;5034479;28;20197;-77
2022/09/06 10:16:44;;;;;;;3.00;2.30;;;;;;;;;;5018382;28;20178;-76
2022/09/06 10:19:28;;;;;;;2.90;2.08;;;;;;;;;;5018061;28;20202;-76
2022/09/06 10:21:57;;;;;;;2.85;2.15;;;;;;;;;;5034633;28;20177;-77
2022/09/06 10:24:41;;;;;;;3.05;2.05;;;;;;;;;;5034660;28;20191;-76
2022/09/06 10:27:08;;;;;;;2.05;1.83;;;;;;;;;;5034158;28;20198;-77
2022/09/06 10:29:34;;;;;;;2.15;1.95;;;;;;;;;;5017928;28;20182;-77
2022/09/06 10:32:00;;;;;;;2.72;1.90;;;;;;;;;;5034379;28;20648;-77
2022/09/06 10:34:40;;;;;;;2.10;1.90;;;;;;;;;;5034141;28;20672;-77
2022/09/06 10:37:21;;;;;;;2.20;1.90;;;;;;;;;;5034162;28;20221;-76
2022/09/06 10:40:06;;;;;;;2.30;1.95;;;;;;;;;;5033795;28;20202;-76
2022/09/06 10:42:47;;;;;;;3.90;2.30;;;;;;;;;;5035469;28;20162;-76
2022/09/06 10:45:28;;;;;;;3.17;2.25;;;;;;;;;;5034049;28;20227;-76
2022/09/06 10:47:55;;;;;;;4.25;2.20;;;;;;;;;;5033934;28;20174;-76
2022/09/06 10:50:25;;;;;;;2.40;1.98;;;;;;;;;;5033690;28;20177;-76
2022/09/06 10:52:52;;;;;;;2.22;2.00;;;;;;;;;;5033927;28;20202;-74
2022/09/06 10:55:18;;;;;;;3.33;2.20;;;;;;;;;;5017500;28;20714;-74
2022/09/06 10:57:48;;;;;;;3.22;2.20;;;;;;;;;;5017460;28;20244;-77
2022/09/06 11:00:15;;;;;;;2.30;2.10;;;;;;;;;;5033566;28;20202;-76
2022/09/06 11:03:00;;;;;;;3.20;2.38;;;;;;;;;;5033775;28;20237;-76
2022/09/06 11:05:29;;;;;;;2.40;2.20;;;;;;;;;;5033395;28;20182;-76
2022/09/06 11:08:07;;;;;;;3.08;2.35;;;;;;;;;;5017356;28;20174;-76
2022/09/06 11:10:34;;;;;;;2.92;2.28;;;;;;;;;;5033417;28;20232;-76
2022/09/06 11:13:09;;;;;;;3.97;2.97;;;;;;;;;;5033650;28;20198;-77
2022/09/06 11:15:55;;;;;;;3.03;1.95;;;;;;;;;;5033647;28;20174;-77
2022/09/06 11:18:39;;;;;;;3.35;2.08;;;;;;;;;;5033311;28;20187;-77
2022/09/06 11:21:08;;;;;;;3.20;2.00;;;;;;;;;;5033324;28;20182;-76
2022/09/06 11:23:37;;;;;;;3.15;2.03;;;;;;;;;;5033263;28;20194;-76
2022/09/06 11:26:13;;;;;;;2.60;2.00;;;;;;;;;;5034300;28;20171;-76
2022/09/06 11:28:44;;;;;;;2.20;2.00;;;;;;;;;;5033484;28;20644;-77
2022/09/06 11:31:12;;;;;;;2.22;1.80;;;;;;;;;;5033131;28;20301;-77
2022/09/06 11:33:39;;;;;;;3.38;1.85;;;;;;;;;;5034613;28;20225;-77
2022/09/06 11:36:24;;;;;;;3.13;1.73;;;;;;;;;;5033057;28;20174;-77
2022/09/06 11:38:54;;;;;;;2.85;2.28;;;;;;;;;;5032996;28;20193;-77
2022/09/06 11:41:20;;;;;;;2.80;2.55;;;;;;;;;;5033036;28;20210;-77
2022/09/06 11:43:51;;;;;;;1.80;1.70;;;;;;;;;;5032754;28;20205;-77
2022/09/06 11:46:35;;;;;;;7.22;4.55;;;;;;;;;;5033162;28;20174;-77
2022/09/06 11:49:03;;;;;;;5.28;3.35;;;;;;;;;;5032598;28;20248;-77
2022/09/06 11:51:34;;;;;;;3.65;1.67;;;;;;;;;;5032839;28;20174;-77
2022/09/06 11:54:03;;;;;;;3.30;1.80;;;;;;;;;;5032670;28;20201;-77
2022/09/06 11:56:40;;;;;;;3.53;1.80;;;;;;;;;;5034159;28;20174;-76
2022/09/06 11:59:18;;;;;;;1.80;1.70;;;;;;;;;;5033733;28;20197;-76
2022/09/06 12:02:01;;;;;;;2.08;1.70;;;;;;;;;;5032614;28;20605;-77
2022/09/06 12:04:45;;;;;;;1.75;1.40;;;;;;;;;;5032392;28;20612;-75
2022/09/06 12:07:12;;;;;;;2.55;1.50;;;;;;;;;;5032422;28;20170;-76
2022/09/06 12:09:39;;;;;;;1.73;1.60;;;;;;;;;;5032438;28;20574;-76
2022/09/06 12:12:06;;;;;;;1.88;1.50;;;;;;;;;;5032729;28;20225;-76
2022/09/06 12:14:34;;;;;;;1.90;1.40;;;;;;;;;;5016064;28;20211;-76
2022/09/06 12:17:01;;;;;;;1.75;1.65;;;;;;;;;;5015196;28;20217;-76
2022/09/06 12:19:46;;;;;;;1.95;1.45;;;;;;;;;;5031972;28;20210;-77
2022/09/06 12:22:40;;;;;;;2.03;1.20;;;;;;;;;;5032225;28;20543;-77
2022/09/06 12:25:25;;;;;;;1.80;1.60;;;;;;;;;;5032331;28;20249;-76
2022/09/06 12:27:54;;;;;;;2.05;1.50;;;;;;;;;;5032375;28;20192;-77
2022/09/06 12:30:41;;;;;;;2.42;1.45;;;;;;;;;;5033355;28;20170;-76
2022/09/06 12:33:27;;;;;;;1.70;1.30;;;;;;;;;;5032121;28;20186;-76
2022/09/06 12:35:53;;;;;;;2.72;1.48;;;;;;;;;;5028144;28;20190;-76
2022/09/06 12:38:23;;;;;;;2.67;1.40;;;;;;;;;;5032037;28;20221;-76
2022/09/06 12:40:57;;;;;;;4.25;1.60;;;;;;;;;;5031697;28;20217;-77
2022/09/06 12:43:24;;;;;;;2.15;1.50;;;;;;;;;;5031763;28;20683;-77
2022/09/06 12:45:51;;;;;;;1.40;1.30;;;;;;;;;;5031924;28;20171;-77
2022/09/06 12:48:30;;;;;;;4.00;1.63;;;;;;;;;;5031734;28;20174;-77
2022/09/06 12:51:03;;;;;;;2.95;1.60;;;;;;;;;;5031784;28;20174;-77
2022/09/06 12:53:30;;;;;;;2.17;1.40;;;;;;;;;;5031583;28;20229;-77
2022/09/06 12:56:13;;;;;;;3.42;1.75;;;;;;;;;;5031695;28;20182;-77
2022/09/06 12:58:39;;;;;;;1.45;1.35;;;;;;;;;;5031630;28;20182;-77
2022/09/06 13:01:32;;;;;;;2.50;1.60;;;;;;;;;;5031473;28;20186;-77
2022/09/06 13:04:03;;;;;;;1.85;1.48;;;;;;;;;;5030307;28;20204;-77
2022/09/06 13:06:32;;;;;;;2.40;1.58;;;;;;;;;;5031366;28;20182;-76
2022/09/06 13:08:58;;;;;;;1.30;1.20;;;;;;;;;;5014958;28;20174;-76
2022/09/06 13:11:24;;;;;;;2.28;1.40;;;;;;;;;;5015028;28;20174;-76
2022/09/06 13:13:51;;;;;;;2.65;1.48;;;;;;;;;;5031442;28;20190;-77
2022/09/06 13:16:38;;;;;;;3.45;1.50;;;;;;;;;;5031467;28;20170;-77
2022/09/06 13:19:14;;;;;;;1.73;1.40;;;;;;;;;;5030982;28;20259;-76
2022/09/06 13:21:41;;;;;;;1.65;1.50;;;;;;;;;;5031270;28;20174;-76
2022/09/06 13:24:20;;;;;;;2.45;1.42;;;;;;;;;;5015051;28;20201;-77
2022/09/06 13:26:47;;;;;;;2.10;1.20;;;;;;;;;;5030721;28;20176;-77
2022/09/06 13:29:16;;;;;;;2.92;1.38;;;;;;;;;;5014538;28;20182;-77
2022/09/06 13:31:50;;;;;;;2.75;1.40;;;;;;;;;;5032425;28;20236;-77
2022/09/06 13:34:23;;;;;;;1.40;1.30;;;;;;;;;;5030986;28;20198;-77
2022/09/06 13:36:51;;;;;;;2.17;1.40;;;;;;;;;;5030993;28;20186;-78
2022/09/06 13:39:30;;;;;;;2.85;1.60;;;;;;;;;;5014455;28;20210;-76
2022/09/06 13:42:00;;;;;;;3.08;2.08;;;;;;;;;;5031041;28;20590;-77
2022/09/06 13:44:30;;;;;;;3.53;1.35;;;;;;;;;;5030976;28;20245;-77
2022/09/06 13:46:56;;;;;;;1.38;1.27;;;;;;;;;;5031008;28;20181;-77
2022/09/06 13:49:23;;;;;;;2.28;1.52;;;;;;;;;;5030626;28;20206;-77
2022/09/06 13:51:49;;;;;;;2.10;1.40;;;;;;;;;;5030906;28;20185;-77
2022/09/06 13:54:15;;;;;;;1.30;1.20;;;;;;;;;;5030661;28;20186;-77
2022/09/06 13:56:43;;;;;;;1.85;1.40;;;;;;;;;;5030794;28;20170;-77
2022/09/06 13:59:09;;;;;;;2.85;1.40;;;;;;;;;;5030459;28;20285;-76
2022/09/06 14:01:36;;;;;;;1.33;1.23;;;;;;;;;;5031028;28;20197;-76
2022/09/06 14:04:03;;;;;;;1.63;1.20;;;;;;;;;;5030836;28;20245;-77
2022/09/06 14:06:29;;;;;;;1.67;1.30;;;;;;;;;;5030687;28;20236;-77
2022/09/06 14:08:55;;;;;;;2.72;1.40;;;;;;;;;;5030583;28;20171;-76
2022/09/06 14:11:22;;;;;;;1.80;1.40;;;;;;;;;;5031868;28;20167;-77
2022/09/06 14:13:48;;;;;;;3.10;1.33;;;;;;;;;;5030517;28;20190;-77
2022/09/06 14:16:14;;;;;;;1.45;1.30;;;;;;;;;;5030656;28;20561;-77
2022/09/06 14:18:40;;;;;;;2.03;1.30;;;;;;;;;;5014533;28;20174;-77
2022/09/06 14:21:06;;;;;;;4.35;1.40;;;;;;;;;;5013996;28;20206;-77
2022/09/06 14:23:32;;;;;;;2.13;1.40;;;;;;;;;;5030481;28;20213;-77
2022/09/06 14:25:59;;;;;;;2.63;1.27;;;;;;;;;;5013923;28;20182;-76
2022/09/06 14:28:26;;;;;;;3.33;1.50;;;;;;;;;;5030394;28;20637;-76
2022/09/06 14:30:53;;;;;;;1.40;1.23;;;;;;;;;;5030490;28;20175;-76
2022/09/06 14:33:20;;;;;;;2.92;1.52;;;;;;;;;;5014092;28;20213;-76
2022/09/06 14:35:46;;;;;;;3.05;1.58;;;;;;;;;;5030427;28;20240;-77
2022/09/06 14:38:12;;;;;;;3.05;1.52;;;;;;;;;;5014101;28;20189;-76
2022/09/06 14:40:38;;;;;;;2.40;1.50;;;;;;;;;;5033414;28;20206;-78
2022/09/06 14:43:05;;;;;;;3.55;1.40;;;;;;;;;;5017725;28;20300;-76
2022/09/06 14:45:34;;;;;;;3.05;1.65;;;;;;;;;;5017617;28;20181;-76
2022/09/06 14:48:00;;;;;;;1.58;1.40;;;;;;;;;;5033894;28;20641;-76
2022/09/06 14:50:26;;;;;;;1.85;1.33;;;;;;;;;;5033877;28;20170;-76
2022/09/06 14:52:52;;;;;;;2.90;1.50;;;;;;;;;;5017367;28;20672;-77